sensor_id;sensor_type;location;lat;lon;timestamp;P1;durP1;ratioP1;P2;durP2;ratioP2
12493;SDS011;8260;51.422;6.786;2022-11-20T00:00:34;24.23;;;15.27;;
12493;SDS011;8260;51.422;6.786;2022-11-20T00:03:03;24.03;;;15.77;;
12493;SDS011;8260;51.422;6.786;2022-11-20T00:05:34;25.53;;;16.57;;
12493;SDS011;8260;51.422;6.786;2022-11-20T00:08:02;23.67;;;16.43;;
12493;SDS011;8260;51.422;6.786;2022-11-20T00:10:35;21.43;;;15.30;;
12493;SDS011;8260;51.422;6.786;2022-11-20T00:13:03;23.13;;;16.40;;
12493;SDS011;8260;51.422;6.786;2022-11-20T00:15:32;23.27;;;15.80;;
12493;SDS011;8260;51.422;6.786;2022-11-20T00:18:03;25.43;;;16.43;;
12493;SDS011;8260;51.422;6.786;2022-11-20T00:20:32;25.23;;;16.90;;
12493;SDS011;8260;51.422;6.786;2022-11-20T00:23:00;27.83;;;17.53;;
12493;SDS011;8260;51.422;6.786;2022-11-20T00:25:34;25.07;;;17.63;;
12493;SDS011;8260;51.422;6.786;2022-11-20T00:28:03;26.83;;;17.17;;
12493;SDS011;8260;51.422;6.786;2022-11-20T00:30:31;26.40;;;16.70;;
12493;SDS011;8260;51.422;6.786;2022-11-20T00:32:59;27.03;;;16.60;;
12493;SDS011;8260;51.422;6.786;2022-11-20T00:35:28;26.03;;;16.87;;
12493;SDS011;8260;51.422;6.786;2022-11-20T00:37:56;26.33;;;17.17;;
12493;SDS011;8260;51.422;6.786;2022-11-20T00:40:24;22.70;;;16.00;;
12493;SDS011;8260;51.422;6.786;2022-11-20T00:42:54;25.87;;;17.00;;
12493;SDS011;8260;51.422;6.786;2022-11-20T00:45:22;26.50;;;17.40;;
12493;SDS011;8260;51.422;6.786;2022-11-20T00:47:51;24.63;;;16.33;;
12493;SDS011;8260;51.422;6.786;2022-11-20T00:50:19;27.73;;;17.17;;
12493;SDS011;8260;51.422;6.786;2022-11-20T00:52:47;25.13;;;16.90;;
12493;SDS011;8260;51.422;6.786;2022-11-20T00:55:16;26.90;;;17.97;;
12493;SDS011;8260;51.422;6.786;2022-11-20T00:57:44;28.00;;;17.20;;
12493;SDS011;8260;51.422;6.786;2022-11-20T01:00:14;26.93;;;17.53;;
12493;SDS011;8260;51.422;6.786;2022-11-20T01:02:43;26.67;;;17.20;;
12493;SDS011;8260;51.422;6.786;2022-11-20T01:05:11;25.87;;;17.43;;
12493;SDS011;8260;51.422;6.786;2022-11-20T01:07:39;27.30;;;17.10;;
12493;SDS011;8260;51.422;6.786;2022-11-20T01:10:08;26.90;;;17.67;;
12493;SDS011;8260;51.422;6.786;2022-11-20T01:12:36;26.50;;;17.70;;
12493;SDS011;8260;51.422;6.786;2022-11-20T01:15:05;26.63;;;18.63;;
12493;SDS011;8260;51.422;6.786;2022-11-20T01:17:35;25.90;;;17.43;;
12493;SDS011;8260;51.422;6.786;2022-11-20T01:20:04;29.23;;;18.67;;
12493;SDS011;8260;51.422;6.786;2022-11-20T01:22:32;27.23;;;17.87;;
12493;SDS011;8260;51.422;6.786;2022-11-20T01:25:01;26.00;;;18.17;;
12493;SDS011;8260;51.422;6.786;2022-11-20T01:27:29;27.30;;;18.27;;
12493;SDS011;8260;51.422;6.786;2022-11-20T01:29:57;26.17;;;17.60;;
12493;SDS011;8260;51.422;6.786;2022-11-20T01:32:26;26.30;;;17.83;;
12493;SDS011;8260;51.422;6.786;2022-11-20T01:34:56;26.17;;;18.47;;
12493;SDS011;8260;51.422;6.786;2022-11-20T01:37:24;27.90;;;19.27;;
12493;SDS011;8260;51.422;6.786;2022-11-20T01:39:53;26.20;;;18.67;;
12493;SDS011;8260;51.422;6.786;2022-11-20T01:42:21;30.30;;;18.03;;
12493;SDS011;8260;51.422;6.786;2022-11-20T01:47:50;26.00;;;17.83;;
12493;SDS011;8260;51.422;6.786;2022-11-20T01:50:22;29.33;;;19.03;;
12493;SDS011;8260;51.422;6.786;2022-11-20T01:52:51;31.90;;;19.43;;
12493;SDS011;8260;51.422;6.786;2022-11-20T01:55:22;29.40;;;19.77;;
12493;SDS011;8260;51.422;6.786;2022-11-20T01:57:51;27.83;;;18.27;;
12493;SDS011;8260;51.422;6.786;2022-11-20T02:00:20;28.57;;;17.67;;
12493;SDS011;8260;51.422;6.786;2022-11-20T02:02:51;29.57;;;18.50;;
12493;SDS011;8260;51.422;6.786;2022-11-20T02:05:22;26.47;;;17.83;;
12493;SDS011;8260;51.422;6.786;2022-11-20T02:07:51;27.60;;;17.80;;
12493;SDS011;8260;51.422;6.786;2022-11-20T02:10:20;25.87;;;18.63;;
12493;SDS011;8260;51.422;6.786;2022-11-20T02:12:49;26.67;;;18.23;;
12493;SDS011;8260;51.422;6.786;2022-11-20T02:15:35;24.33;;;17.43;;
12493;SDS011;8260;51.422;6.786;2022-11-20T02:18:04;27.43;;;18.43;;
12493;SDS011;8260;51.422;6.786;2022-11-20T02:20:35;28.90;;;17.93;;
12493;SDS011;8260;51.422;6.786;2022-11-20T02:23:03;28.50;;;18.53;;
12493;SDS011;8260;51.422;6.786;2022-11-20T02:25:34;25.20;;;18.07;;
12493;SDS011;8260;51.422;6.786;2022-11-20T02:28:03;26.50;;;17.97;;
12493;SDS011;8260;51.422;6.786;2022-11-20T02:30:32;25.80;;;17.63;;
12493;SDS011;8260;51.422;6.786;2022-11-20T02:33:00;28.63;;;17.87;;
12493;SDS011;8260;51.422;6.786;2022-11-20T02:35:42;23.87;;;17.00;;
12493;SDS011;8260;51.422;6.786;2022-11-20T02:38:11;28.07;;;18.13;;
12493;SDS011;8260;51.422;6.786;2022-11-20T02:40:40;28.07;;;18.90;;
12493;SDS011;8260;51.422;6.786;2022-11-20T02:43:09;26.63;;;19.03;;
12493;SDS011;8260;51.422;6.786;2022-11-20T02:45:38;24.97;;;17.57;;
12493;SDS011;8260;51.422;6.786;2022-11-20T02:48:06;28.20;;;19.90;;
12493;SDS011;8260;51.422;6.786;2022-11-20T02:50:36;25.67;;;17.77;;
12493;SDS011;8260;51.422;6.786;2022-11-20T02:53:05;28.20;;;18.37;;
12493;SDS011;8260;51.422;6.786;2022-11-20T02:55:33;26.40;;;17.73;;
12493;SDS011;8260;51.422;6.786;2022-11-20T02:58:03;30.80;;;19.30;;
12493;SDS011;8260;51.422;6.786;2022-11-20T03:00:32;24.43;;;17.73;;
12493;SDS011;8260;51.422;6.786;2022-11-20T03:03:01;28.67;;;18.53;;
12493;SDS011;8260;51.422;6.786;2022-11-20T03:05:30;26.03;;;17.67;;
12493;SDS011;8260;51.422;6.786;2022-11-20T03:07:58;28.60;;;18.27;;
12493;SDS011;8260;51.422;6.786;2022-11-20T03:10:26;24.70;;;18.60;;
12493;SDS011;8260;51.422;6.786;2022-11-20T03:12:55;23.73;;;16.40;;
12493;SDS011;8260;51.422;6.786;2022-11-20T03:15:25;24.77;;;18.03;;
12493;SDS011;8260;51.422;6.786;2022-11-20T03:17:53;29.13;;;18.37;;
12493;SDS011;8260;51.422;6.786;2022-11-20T03:20:22;24.80;;;17.67;;
12493;SDS011;8260;51.422;6.786;2022-11-20T03:22:50;30.47;;;18.77;;
12493;SDS011;8260;51.422;6.786;2022-11-20T03:25:18;25.70;;;17.60;;
12493;SDS011;8260;51.422;6.786;2022-11-20T03:27:47;27.53;;;18.33;;
12493;SDS011;8260;51.422;6.786;2022-11-20T03:30:15;24.77;;;17.53;;
12493;SDS011;8260;51.422;6.786;2022-11-20T03:32:45;24.57;;;16.70;;
12493;SDS011;8260;51.422;6.786;2022-11-20T03:35:14;23.93;;;16.63;;
12493;SDS011;8260;51.422;6.786;2022-11-20T03:37:42;24.53;;;16.33;;
12493;SDS011;8260;51.422;6.786;2022-11-20T03:40:12;22.00;;;15.43;;
12493;SDS011;8260;51.422;6.786;2022-11-20T03:42:40;22.83;;;16.63;;
12493;SDS011;8260;51.422;6.786;2022-11-20T03:45:15;20.73;;;16.53;;
12493;SDS011;8260;51.422;6.786;2022-11-20T03:47:45;22.60;;;15.70;;
12493;SDS011;8260;51.422;6.786;2022-11-20T03:50:13;24.33;;;17.57;;
12493;SDS011;8260;51.422;6.786;2022-11-20T03:52:42;25.27;;;17.60;;
12493;SDS011;8260;51.422;6.786;2022-11-20T03:55:10;26.07;;;18.40;;
12493;SDS011;8260;51.422;6.786;2022-11-20T03:57:38;25.63;;;17.07;;
12493;SDS011;8260;51.422;6.786;2022-11-20T04:00:07;26.17;;;18.50;;
12493;SDS011;8260;51.422;6.786;2022-11-20T04:02:35;26.40;;;17.53;;
12493;SDS011;8260;51.422;6.786;2022-11-20T04:05:06;25.40;;;18.07;;
12493;SDS011;8260;51.422;6.786;2022-11-20T04:07:34;23.37;;;17.57;;
12493;SDS011;8260;51.422;6.786;2022-11-20T04:10:03;25.87;;;18.07;;
12493;SDS011;8260;51.422;6.786;2022-11-20T04:12:32;26.30;;;18.43;;
12493;SDS011;8260;51.422;6.786;2022-11-20T04:15:00;26.50;;;18.40;;
12493;SDS011;8260;51.422;6.786;2022-11-20T04:17:29;26.23;;;18.63;;
12493;SDS011;8260;51.422;6.786;2022-11-20T04:19:57;26.43;;;18.10;;
12493;SDS011;8260;51.422;6.786;2022-11-20T04:22:27;25.47;;;18.90;;
12493;SDS011;8260;51.422;6.786;2022-11-20T04:24:55;25.93;;;18.17;;
12493;SDS011;8260;51.422;6.786;2022-11-20T04:27:24;27.40;;;18.77;;
12493;SDS011;8260;51.422;6.786;2022-11-20T04:29:52;27.03;;;18.23;;
12493;SDS011;8260;51.422;6.786;2022-11-20T04:32:20;24.00;;;17.87;;
12493;SDS011;8260;51.422;6.786;2022-11-20T04:34:49;25.97;;;17.30;;
12493;SDS011;8260;51.422;6.786;2022-11-20T04:37:17;25.53;;;18.47;;
12493;SDS011;8260;51.422;6.786;2022-11-20T04:39:47;27.67;;;18.23;;
12493;SDS011;8260;51.422;6.786;2022-11-20T04:42:15;26.20;;;18.00;;
12493;SDS011;8260;51.422;6.786;2022-11-20T04:44:56;25.83;;;18.40;;
12493;SDS011;8260;51.422;6.786;2022-11-20T04:47:24;27.60;;;18.53;;
12493;SDS011;8260;51.422;6.786;2022-11-20T04:49:53;26.37;;;18.07;;
12493;SDS011;8260;51.422;6.786;2022-11-20T04:52:21;27.47;;;18.97;;
12493;SDS011;8260;51.422;6.786;2022-11-20T04:54:51;25.27;;;17.80;;
12493;SDS011;8260;51.422;6.786;2022-11-20T04:57:20;27.33;;;17.73;;
12493;SDS011;8260;51.422;6.786;2022-11-20T04:59:49;24.97;;;17.23;;
12493;SDS011;8260;51.422;6.786;2022-11-20T05:02:17;26.07;;;18.10;;
12493;SDS011;8260;51.422;6.786;2022-11-20T05:04:46;24.40;;;17.50;;
12493;SDS011;8260;51.422;6.786;2022-11-20T05:07:14;26.80;;;18.23;;
12493;SDS011;8260;51.422;6.786;2022-11-20T05:09:43;27.40;;;18.47;;
12493;SDS011;8260;51.422;6.786;2022-11-20T05:12:13;26.23;;;18.43;;
12493;SDS011;8260;51.422;6.786;2022-11-20T05:14:41;25.30;;;18.70;;
12493;SDS011;8260;51.422;6.786;2022-11-20T05:17:10;26.10;;;19.10;;
12493;SDS011;8260;51.422;6.786;2022-11-20T05:19:38;30.93;;;21.20;;
12493;SDS011;8260;51.422;6.786;2022-11-20T05:22:07;29.83;;;21.57;;
12493;SDS011;8260;51.422;6.786;2022-11-20T05:24:35;27.13;;;20.73;;
12493;SDS011;8260;51.422;6.786;2022-11-20T05:27:03;29.50;;;20.83;;
12493;SDS011;8260;51.422;6.786;2022-11-20T05:29:33;29.07;;;21.37;;
12493;SDS011;8260;51.422;6.786;2022-11-20T05:32:01;30.63;;;19.93;;
12493;SDS011;8260;51.422;6.786;2022-11-20T05:34:31;29.30;;;21.23;;
12493;SDS011;8260;51.422;6.786;2022-11-20T05:37:00;30.87;;;21.87;;
12493;SDS011;8260;51.422;6.786;2022-11-20T05:39:28;32.13;;;23.03;;
12493;SDS011;8260;51.422;6.786;2022-11-20T05:41:56;31.80;;;24.27;;
12493;SDS011;8260;51.422;6.786;2022-11-20T05:44:40;30.63;;;22.90;;
12493;SDS011;8260;51.422;6.786;2022-11-20T05:47:08;34.10;;;24.00;;
12493;SDS011;8260;51.422;6.786;2022-11-20T05:49:37;31.63;;;24.50;;
12493;SDS011;8260;51.422;6.786;2022-11-20T05:52:05;34.13;;;23.97;;
12493;SDS011;8260;51.422;6.786;2022-11-20T05:54:34;34.73;;;24.57;;
12493;SDS011;8260;51.422;6.786;2022-11-20T05:57:02;38.83;;;25.10;;
12493;SDS011;8260;51.422;6.786;2022-11-20T05:59:30;32.03;;;24.67;;
12493;SDS011;8260;51.422;6.786;2022-11-20T06:02:00;36.77;;;25.03;;
12493;SDS011;8260;51.422;6.786;2022-11-20T06:04:28;36.73;;;25.30;;
12493;SDS011;8260;51.422;6.786;2022-11-20T06:06:57;31.57;;;23.63;;
12493;SDS011;8260;51.422;6.786;2022-11-20T06:09:25;31.27;;;23.93;;
12493;SDS011;8260;51.422;6.786;2022-11-20T06:11:53;31.20;;;23.47;;
12493;SDS011;8260;51.422;6.786;2022-11-20T06:14:22;32.03;;;22.47;;
12493;SDS011;8260;51.422;6.786;2022-11-20T06:16:50;32.40;;;24.33;;
12493;SDS011;8260;51.422;6.786;2022-11-20T06:19:20;33.53;;;24.23;;
12493;SDS011;8260;51.422;6.786;2022-11-20T06:21:49;33.37;;;24.33;;
12493;SDS011;8260;51.422;6.786;2022-11-20T06:24:17;33.47;;;23.33;;
12493;SDS011;8260;51.422;6.786;2022-11-20T06:26:46;33.67;;;24.10;;
12493;SDS011;8260;51.422;6.786;2022-11-20T06:29:14;33.37;;;24.50;;
12493;SDS011;8260;51.422;6.786;2022-11-20T06:31:42;34.43;;;23.47;;
12493;SDS011;8260;51.422;6.786;2022-11-20T06:34:11;35.80;;;25.20;;
12493;SDS011;8260;51.422;6.786;2022-11-20T06:36:40;34.10;;;24.33;;
12493;SDS011;8260;51.422;6.786;2022-11-20T06:39:09;32.30;;;23.53;;
12493;SDS011;8260;51.422;6.786;2022-11-20T06:41:37;29.83;;;22.73;;
12493;SDS011;8260;51.422;6.786;2022-11-20T06:44:06;30.67;;;22.40;;
12493;SDS011;8260;51.422;6.786;2022-11-20T06:46:34;32.17;;;22.83;;
12493;SDS011;8260;51.422;6.786;2022-11-20T06:49:02;31.00;;;22.17;;
12493;SDS011;8260;51.422;6.786;2022-11-20T06:51:31;30.63;;;21.87;;
12493;SDS011;8260;51.422;6.786;2022-11-20T06:54:01;32.43;;;23.23;;
12493;SDS011;8260;51.422;6.786;2022-11-20T06:56:30;28.63;;;21.70;;
12493;SDS011;8260;51.422;6.786;2022-11-20T06:58:58;31.20;;;21.87;;
12493;SDS011;8260;51.422;6.786;2022-11-20T07:01:26;32.17;;;23.43;;
12493;SDS011;8260;51.422;6.786;2022-11-20T07:03:55;29.43;;;21.13;;
12493;SDS011;8260;51.422;6.786;2022-11-20T07:06:23;32.43;;;22.40;;
12493;SDS011;8260;51.422;6.786;2022-11-20T07:08:52;30.93;;;22.17;;
12493;SDS011;8260;51.422;6.786;2022-11-20T07:11:22;32.23;;;21.70;;
12493;SDS011;8260;51.422;6.786;2022-11-20T07:13:51;32.60;;;21.33;;
12493;SDS011;8260;51.422;6.786;2022-11-20T07:16:19;30.80;;;21.93;;
12493;SDS011;8260;51.422;6.786;2022-11-20T07:18:47;31.70;;;22.63;;
12493;SDS011;8260;51.422;6.786;2022-11-20T07:21:16;29.60;;;21.20;;
12493;SDS011;8260;51.422;6.786;2022-11-20T07:23:44;30.40;;;21.03;;
12493;SDS011;8260;51.422;6.786;2022-11-20T07:26:13;27.57;;;20.33;;
12493;SDS011;8260;51.422;6.786;2022-11-20T07:28:45;31.10;;;21.10;;
12493;SDS011;8260;51.422;6.786;2022-11-20T07:31:13;29.17;;;22.37;;
12493;SDS011;8260;51.422;6.786;2022-11-20T07:33:45;32.00;;;21.20;;
12493;SDS011;8260;51.422;6.786;2022-11-20T07:36:13;32.20;;;22.00;;
12493;SDS011;8260;51.422;6.786;2022-11-20T07:38:41;28.47;;;21.23;;
12493;SDS011;8260;51.422;6.786;2022-11-20T07:41:10;27.87;;;20.97;;
12493;SDS011;8260;51.422;6.786;2022-11-20T07:43:38;28.73;;;20.37;;
12493;SDS011;8260;51.422;6.786;2022-11-20T07:46:08;30.73;;;21.27;;
12493;SDS011;8260;51.422;6.786;2022-11-20T07:48:36;27.97;;;20.13;;
12493;SDS011;8260;51.422;6.786;2022-11-20T07:51:05;27.47;;;18.97;;
12493;SDS011;8260;51.422;6.786;2022-11-20T07:53:33;29.70;;;20.20;;
12493;SDS011;8260;51.422;6.786;2022-11-20T07:56:02;30.27;;;21.27;;
12493;SDS011;8260;51.422;6.786;2022-11-20T07:58:31;28.73;;;20.83;;
12493;SDS011;8260;51.422;6.786;2022-11-20T08:01:03;30.17;;;20.40;;
12493;SDS011;8260;51.422;6.786;2022-11-20T08:03:34;29.27;;;19.33;;
12493;SDS011;8260;51.422;6.786;2022-11-20T08:06:04;25.87;;;19.20;;
12493;SDS011;8260;51.422;6.786;2022-11-20T08:08:32;24.33;;;19.23;;
12493;SDS011;8260;51.422;6.786;2022-11-20T08:11:07;29.47;;;19.00;;
12493;SDS011;8260;51.422;6.786;2022-11-20T08:13:53;26.63;;;18.50;;
12493;SDS011;8260;51.422;6.786;2022-11-20T08:16:41;26.63;;;18.77;;
12493;SDS011;8260;51.422;6.786;2022-11-20T08:19:11;27.27;;;19.27;;
12493;SDS011;8260;51.422;6.786;2022-11-20T08:21:39;25.77;;;17.90;;
12493;SDS011;8260;51.422;6.786;2022-11-20T08:24:08;29.60;;;21.60;;
12493;SDS011;8260;51.422;6.786;2022-11-20T08:26:37;30.07;;;20.33;;
12493;SDS011;8260;51.422;6.786;2022-11-20T08:29:05;28.67;;;20.27;;
12493;SDS011;8260;51.422;6.786;2022-11-20T08:31:34;31.37;;;22.87;;
12493;SDS011;8260;51.422;6.786;2022-11-20T08:34:02;30.90;;;19.97;;
12493;SDS011;8260;51.422;6.786;2022-11-20T08:36:36;30.60;;;19.60;;
12493;SDS011;8260;51.422;6.786;2022-11-20T08:39:04;26.97;;;19.33;;
12493;SDS011;8260;51.422;6.786;2022-11-20T08:41:32;25.27;;;18.57;;
12493;SDS011;8260;51.422;6.786;2022-11-20T08:44:03;28.53;;;19.03;;
12493;SDS011;8260;51.422;6.786;2022-11-20T08:46:33;23.93;;;18.03;;
12493;SDS011;8260;51.422;6.786;2022-11-20T08:49:06;25.57;;;19.50;;
12493;SDS011;8260;51.422;6.786;2022-11-20T08:51:36;27.30;;;19.20;;
12493;SDS011;8260;51.422;6.786;2022-11-20T08:54:05;29.33;;;19.53;;
12493;SDS011;8260;51.422;6.786;2022-11-20T08:56:33;27.37;;;18.30;;
12493;SDS011;8260;51.422;6.786;2022-11-20T08:59:02;27.07;;;18.27;;
12493;SDS011;8260;51.422;6.786;2022-11-20T09:01:50;32.60;;;20.97;;
12493;SDS011;8260;51.422;6.786;2022-11-20T09:04:19;28.02;;;20.23;;
12493;SDS011;8260;51.422;6.786;2022-11-20T09:06:48;28.10;;;19.77;;
12493;SDS011;8260;51.422;6.786;2022-11-20T09:09:17;29.60;;;20.23;;
12493;SDS011;8260;51.422;6.786;2022-11-20T09:11:46;24.85;;;18.90;;
12493;SDS011;8260;51.422;6.786;2022-11-20T09:14:16;25.00;;;19.03;;
12493;SDS011;8260;51.422;6.786;2022-11-20T09:16:44;25.40;;;18.87;;
12493;SDS011;8260;51.422;6.786;2022-11-20T09:19:13;37.35;;;26.00;;
12493;SDS011;8260;51.422;6.786;2022-11-20T09:22:02;71.65;;;42.53;;
12493;SDS011;8260;51.422;6.786;2022-11-20T09:24:31;57.35;;;36.55;;
12493;SDS011;8260;51.422;6.786;2022-11-20T09:27:01;41.97;;;26.77;;
12493;SDS011;8260;51.422;6.786;2022-11-20T09:29:29;28.58;;;20.80;;
12493;SDS011;8260;51.422;6.786;2022-11-20T09:31:58;26.17;;;17.73;;
12493;SDS011;8260;51.422;6.786;2022-11-20T09:34:26;26.23;;;17.80;;
12493;SDS011;8260;51.422;6.786;2022-11-20T09:36:54;26.17;;;17.92;;
12493;SDS011;8260;51.422;6.786;2022-11-20T09:39:31;24.50;;;17.50;;
12493;SDS011;8260;51.422;6.786;2022-11-20T09:42:04;21.73;;;16.70;;
12493;SDS011;8260;51.422;6.786;2022-11-20T09:44:40;22.30;;;15.90;;
12493;SDS011;8260;51.422;6.786;2022-11-20T09:47:11;24.10;;;17.45;;
12493;SDS011;8260;51.422;6.786;2022-11-20T09:49:46;22.90;;;16.92;;
12493;SDS011;8260;51.422;6.786;2022-11-20T09:52:19;24.60;;;16.13;;
12493;SDS011;8260;51.422;6.786;2022-11-20T09:54:50;22.33;;;17.08;;
12493;SDS011;8260;51.422;6.786;2022-11-20T09:57:20;21.98;;;15.52;;
12493;SDS011;8260;51.422;6.786;2022-11-20T09:59:50;23.13;;;16.88;;
12493;SDS011;8260;51.422;6.786;2022-11-20T10:02:23;21.52;;;15.38;;
12493;SDS011;8260;51.422;6.786;2022-11-20T10:04:55;21.75;;;15.98;;
12493;SDS011;8260;51.422;6.786;2022-11-20T10:07:27;25.33;;;17.67;;
12493;SDS011;8260;51.422;6.786;2022-11-20T10:10:00;25.23;;;16.70;;
12493;SDS011;8260;51.422;6.786;2022-11-20T10:12:31;27.63;;;17.75;;
12493;SDS011;8260;51.422;6.786;2022-11-20T10:15:07;27.20;;;18.00;;
12493;SDS011;8260;51.422;6.786;2022-11-20T10:17:47;24.13;;;17.33;;
12493;SDS011;8260;51.422;6.786;2022-11-20T10:20:19;25.45;;;18.95;;
12493;SDS011;8260;51.422;6.786;2022-11-20T10:22:56;25.33;;;18.90;;
12493;SDS011;8260;51.422;6.786;2022-11-20T10:25:30;24.02;;;17.50;;
12493;SDS011;8260;51.422;6.786;2022-11-20T10:28:20;23.55;;;17.38;;
12493;SDS011;8260;51.422;6.786;2022-11-20T10:30:55;22.27;;;16.83;;
12493;SDS011;8260;51.422;6.786;2022-11-20T10:33:24;23.50;;;16.52;;
12493;SDS011;8260;51.422;6.786;2022-11-20T10:36:15;24.98;;;16.50;;
12493;SDS011;8260;51.422;6.786;2022-11-20T10:38:46;22.73;;;17.02;;
12493;SDS011;8260;51.422;6.786;2022-11-20T10:41:20;24.73;;;16.67;;
12493;SDS011;8260;51.422;6.786;2022-11-20T10:44:01;22.75;;;14.95;;
12493;SDS011;8260;51.422;6.786;2022-11-20T10:46:34;22.20;;;15.25;;
12493;SDS011;8260;51.422;6.786;2022-11-20T10:49:06;21.70;;;14.65;;
12493;SDS011;8260;51.422;6.786;2022-11-20T10:51:40;20.40;;;15.13;;
12493;SDS011;8260;51.422;6.786;2022-11-20T10:54:12;21.88;;;15.70;;
12493;SDS011;8260;51.422;6.786;2022-11-20T10:56:47;23.50;;;15.88;;
12493;SDS011;8260;51.422;6.786;2022-11-20T10:59:25;23.15;;;15.68;;
12493;SDS011;8260;51.422;6.786;2022-11-20T11:01:56;20.88;;;14.52;;
12493;SDS011;8260;51.422;6.786;2022-11-20T11:04:30;21.75;;;15.20;;
12493;SDS011;8260;51.422;6.786;2022-11-20T11:07:04;23.10;;;15.30;;
12493;SDS011;8260;51.422;6.786;2022-11-20T11:09:35;19.85;;;14.25;;
12493;SDS011;8260;51.422;6.786;2022-11-20T11:12:07;23.33;;;15.38;;
12493;SDS011;8260;51.422;6.786;2022-11-20T11:14:46;21.13;;;14.55;;
12493;SDS011;8260;51.422;6.786;2022-11-20T11:17:19;18.75;;;13.68;;
12493;SDS011;8260;51.422;6.786;2022-11-20T11:19:56;21.42;;;15.10;;
12493;SDS011;8260;51.422;6.786;2022-11-20T11:22:25;21.13;;;15.15;;
12493;SDS011;8260;51.422;6.786;2022-11-20T11:24:53;22.17;;;14.40;;
12493;SDS011;8260;51.422;6.786;2022-11-20T11:27:23;22.67;;;15.60;;
12493;SDS011;8260;51.422;6.786;2022-11-20T11:30:01;20.35;;;14.75;;
12493;SDS011;8260;51.422;6.786;2022-11-20T11:32:29;22.08;;;15.88;;
12493;SDS011;8260;51.422;6.786;2022-11-20T11:34:58;21.30;;;15.20;;
12493;SDS011;8260;51.422;6.786;2022-11-20T11:37:27;21.48;;;14.52;;
12493;SDS011;8260;51.422;6.786;2022-11-20T11:39:57;20.55;;;14.60;;
12493;SDS011;8260;51.422;6.786;2022-11-20T11:42:51;27.20;;;17.20;;
12493;SDS011;8260;51.422;6.786;2022-11-20T11:45:21;22.90;;;16.08;;
12493;SDS011;8260;51.422;6.786;2022-11-20T11:47:48;20.38;;;14.80;;
12493;SDS011;8260;51.422;6.786;2022-11-20T11:50:19;22.70;;;15.13;;
12493;SDS011;8260;51.422;6.786;2022-11-20T11:52:54;21.25;;;15.15;;
12493;SDS011;8260;51.422;6.786;2022-11-20T11:55:29;21.23;;;14.40;;
12493;SDS011;8260;51.422;6.786;2022-11-20T11:58:02;22.38;;;14.85;;
12493;SDS011;8260;51.422;6.786;2022-11-20T12:00:32;23.70;;;15.13;;
12493;SDS011;8260;51.422;6.786;2022-11-20T12:03:03;20.73;;;14.93;;
12493;SDS011;8260;51.422;6.786;2022-11-20T12:05:35;23.27;;;15.43;;
12493;SDS011;8260;51.422;6.786;2022-11-20T12:08:06;22.20;;;14.23;;
12493;SDS011;8260;51.422;6.786;2022-11-20T12:10:41;21.03;;;14.73;;
12493;SDS011;8260;51.422;6.786;2022-11-20T12:13:17;22.70;;;15.07;;
12493;SDS011;8260;51.422;6.786;2022-11-20T12:15:48;26.52;;;15.63;;
12493;SDS011;8260;51.422;6.786;2022-11-20T12:18:18;23.97;;;15.70;;
12493;SDS011;8260;51.422;6.786;2022-11-20T12:20:50;24.98;;;15.40;;
12493;SDS011;8260;51.422;6.786;2022-11-20T12:23:21;25.58;;;17.75;;
12493;SDS011;8260;51.422;6.786;2022-11-20T12:25:54;25.00;;;17.27;;
12493;SDS011;8260;51.422;6.786;2022-11-20T12:28:30;25.50;;;17.02;;
12493;SDS011;8260;51.422;6.786;2022-11-20T12:34:02;19.20;;;14.38;;
12493;SDS011;8260;51.422;6.786;2022-11-20T12:36:33;27.23;;;15.38;;
12493;SDS011;8260;51.422;6.786;2022-11-20T12:41:55;21.52;;;14.13;;
12493;SDS011;8260;51.422;6.786;2022-11-20T12:44:56;21.55;;;14.35;;
12493;SDS011;8260;51.422;6.786;2022-11-20T12:47:54;21.30;;;13.95;;
12493;SDS011;8260;51.422;6.786;2022-11-20T12:50:28;21.92;;;14.80;;
12493;SDS011;8260;51.422;6.786;2022-11-20T12:53:22;23.10;;;15.77;;
12493;SDS011;8260;51.422;6.786;2022-11-20T12:55:54;21.48;;;14.52;;
12493;SDS011;8260;51.422;6.786;2022-11-20T12:58:26;24.80;;;15.43;;
12493;SDS011;8260;51.422;6.786;2022-11-20T13:01:03;23.35;;;14.57;;
12493;SDS011;8260;51.422;6.786;2022-11-20T13:03:36;22.98;;;14.18;;
12493;SDS011;8260;51.422;6.786;2022-11-20T13:06:10;25.42;;;16.20;;
12493;SDS011;8260;51.422;6.786;2022-11-20T13:08:40;23.17;;;14.75;;
12493;SDS011;8260;51.422;6.786;2022-11-20T13:11:11;21.30;;;14.40;;
12493;SDS011;8260;51.422;6.786;2022-11-20T13:13:43;22.25;;;14.60;;
12493;SDS011;8260;51.422;6.786;2022-11-20T13:16:15;23.98;;;15.38;;
12493;SDS011;8260;51.422;6.786;2022-11-20T13:18:45;19.75;;;13.68;;
12493;SDS011;8260;51.422;6.786;2022-11-20T13:21:15;21.23;;;14.35;;
12493;SDS011;8260;51.422;6.786;2022-11-20T13:23:43;24.08;;;15.40;;
12493;SDS011;8260;51.422;6.786;2022-11-20T13:26:16;23.05;;;15.05;;
12493;SDS011;8260;51.422;6.786;2022-11-20T13:28:45;23.90;;;15.60;;
12493;SDS011;8260;51.422;6.786;2022-11-20T13:31:31;26.42;;;15.20;;
12493;SDS011;8260;51.422;6.786;2022-11-20T13:34:02;24.95;;;16.75;;
12493;SDS011;8260;51.422;6.786;2022-11-20T13:36:31;29.08;;;18.27;;
12493;SDS011;8260;51.422;6.786;2022-11-20T13:39:01;30.00;;;18.42;;
12493;SDS011;8260;51.422;6.786;2022-11-20T13:41:30;23.15;;;15.63;;
12493;SDS011;8260;51.422;6.786;2022-11-20T13:44:05;29.17;;;16.25;;
12493;SDS011;8260;51.422;6.786;2022-11-20T13:46:37;26.27;;;15.77;;
12493;SDS011;8260;51.422;6.786;2022-11-20T13:49:06;25.13;;;16.15;;
12493;SDS011;8260;51.422;6.786;2022-11-20T13:51:37;25.00;;;16.77;;
12493;SDS011;8260;51.422;6.786;2022-11-20T13:56:59;26.75;;;16.27;;
12493;SDS011;8260;51.422;6.786;2022-11-20T13:59:33;25.75;;;17.55;;
12493;SDS011;8260;51.422;6.786;2022-11-20T14:02:05;27.35;;;16.90;;
12493;SDS011;8260;51.422;6.786;2022-11-20T14:04:38;23.92;;;16.48;;
12493;SDS011;8260;51.422;6.786;2022-11-20T14:07:10;27.15;;;18.05;;
12493;SDS011;8260;51.422;6.786;2022-11-20T14:09:39;25.73;;;16.73;;
12493;SDS011;8260;51.422;6.786;2022-11-20T14:12:18;24.50;;;16.85;;
12493;SDS011;8260;51.422;6.786;2022-11-20T14:14:47;27.75;;;17.42;;
12493;SDS011;8260;51.422;6.786;2022-11-20T14:17:19;34.03;;;22.63;;
12493;SDS011;8260;51.422;6.786;2022-11-20T14:19:48;33.00;;;20.98;;
12493;SDS011;8260;51.422;6.786;2022-11-20T14:22:18;29.00;;;18.25;;
12493;SDS011;8260;51.422;6.786;2022-11-20T14:24:47;28.23;;;18.80;;
12493;SDS011;8260;51.422;6.786;2022-11-20T14:27:16;27.42;;;18.63;;
12493;SDS011;8260;51.422;6.786;2022-11-20T14:29:46;28.17;;;18.95;;
12493;SDS011;8260;51.422;6.786;2022-11-20T14:32:16;29.65;;;18.70;;
12493;SDS011;8260;51.422;6.786;2022-11-20T14:34:47;30.80;;;19.23;;
12493;SDS011;8260;51.422;6.786;2022-11-20T14:37:17;27.27;;;17.83;;
12493;SDS011;8260;51.422;6.786;2022-11-20T14:39:51;27.42;;;17.00;;
12493;SDS011;8260;51.422;6.786;2022-11-20T14:42:20;28.35;;;17.90;;
12493;SDS011;8260;51.422;6.786;2022-11-20T14:44:49;27.08;;;17.27;;
12493;SDS011;8260;51.422;6.786;2022-11-20T14:47:18;23.52;;;16.52;;
12493;SDS011;8260;51.422;6.786;2022-11-20T14:49:49;27.80;;;18.20;;
12493;SDS011;8260;51.422;6.786;2022-11-20T14:52:18;29.75;;;18.05;;
12493;SDS011;8260;51.422;6.786;2022-11-20T14:54:47;28.08;;;18.48;;
12493;SDS011;8260;51.422;6.786;2022-11-20T14:57:23;27.65;;;18.05;;
12493;SDS011;8260;51.422;6.786;2022-11-20T15:00:03;25.35;;;16.70;;
12493;SDS011;8260;51.422;6.786;2022-11-20T15:02:32;26.17;;;17.73;;
12493;SDS011;8260;51.422;6.786;2022-11-20T15:05:02;28.75;;;17.88;;